createdAt,value
2023-03-24T00:00:17.460Z,100216.77
2023-03-24T00:02:52.691Z,100214.03
2023-03-24T00:05:21.956Z,100206.08
2023-03-24T00:07:54.884Z,100204.39
2023-03-24T00:10:23.547Z,100199.80
2023-03-24T00:12:52.229Z,100205.26
2023-03-24T00:15:21.607Z,100209.88
2023-03-24T00:17:53.167Z,100207.91
2023-03-24T00:20:22.406Z,100204.77
2023-03-24T00:22:57.247Z,100202.29
2023-03-24T00:25:28.433Z,100199.88
2023-03-24T00:27:57.649Z,100197.92
2023-03-24T00:30:26.335Z,100198.20
2023-03-24T00:32:54.848Z,100199.71
2023-03-24T00:35:24.094Z,100195.03
2023-03-24T00:37:52.392Z,100195.50
2023-03-24T00:40:21.436Z,100194.73
2023-03-24T00:42:50.261Z,100197.13
2023-03-24T00:45:20.114Z,100199.05
2023-03-24T00:47:54.161Z,100199.40
2023-03-24T00:50:27.151Z,100201.20
2023-03-24T00:52:58.482Z,100198.36
2023-03-24T00:55:28.979Z,100197.77
2023-03-24T00:58:01.203Z,100199.44
2023-03-24T01:00:30.541Z,100197.98
2023-03-24T01:02:59.095Z,100202.41
2023-03-24T01:05:28.608Z,100204.05
2023-03-24T01:07:58.056Z,100204.31
2023-03-24T01:10:33.018Z,100205.29
2023-03-24T01:13:01.667Z,100204.69
2023-03-24T01:15:31.385Z,100204.45
2023-03-24T01:18:02.444Z,100200.55
2023-03-24T01:20:34.238Z,100200.45
2023-03-24T01:23:02.917Z,100202.22
2023-03-24T01:25:31.177Z,100199.66
2023-03-24T01:27:59.820Z,100197.06
2023-03-24T01:30:28.325Z,100202.75
2023-03-24T01:32:57.412Z,100202.19
2023-03-24T01:35:29.007Z,100203.68
2023-03-24T01:37:58.576Z,100206.41
2023-03-24T01:40:28.816Z,100207.02
2023-03-24T01:42:57.369Z,100206.04
2023-03-24T01:45:44.050Z,100204.86
2023-03-24T01:48:16.708Z,100206.19
2023-03-24T01:50:58.020Z,100206.98
2023-03-24T01:53:26.289Z,100210.02
2023-03-24T01:55:56.283Z,100210.73
2023-03-24T01:58:29.888Z,100211.51
2023-03-24T02:01:15.057Z,100210.49
2023-03-24T02:04:05.119Z,100208.54
2023-03-24T02:06:33.890Z,100211.94
2023-03-24T02:09:03.951Z,100204.63
2023-03-24T02:11:34.640Z,100202.00
2023-03-24T02:14:12.662Z,100204.21
2023-03-24T02:16:46.599Z,100204.33
2023-03-24T02:19:38.545Z,100209.32
2023-03-24T02:22:26.863Z,100209.79
2023-03-24T02:24:55.460Z,100215.10
2023-03-24T02:27:30.620Z,100214.34
2023-03-24T02:30:04.505Z,100209.59
2023-03-24T02:32:33.231Z,100210.02
2023-03-24T02:35:10.790Z,100212.33
2023-03-24T02:37:57.958Z,100215.46
2023-03-24T02:40:37.897Z,100215.64
2023-03-24T02:43:15.693Z,100218.41
2023-03-24T02:45:47.138Z,100217.95
2023-03-24T02:48:24.738Z,100225.26
2023-03-24T02:51:04.092Z,100232.23
2023-03-24T02:53:41.222Z,100234.87
2023-03-24T02:56:32.040Z,100239.23
2023-03-24T02:59:06.767Z,100239.11
2023-03-24T03:01:41.614Z,100239.52
2023-03-24T03:04:50.262Z,100242.17
2023-03-24T03:07:22.071Z,100243.07
2023-03-24T03:09:59.072Z,100247.41
2023-03-24T03:12:27.691Z,100244.84
2023-03-24T03:15:00.547Z,100244.67
2023-03-24T03:17:31.084Z,100249.31
2023-03-24T03:20:05.539Z,100247.20
2023-03-24T03:22:43.292Z,100244.58
2023-03-24T03:25:12.298Z,100248.13
2023-03-24T03:27:43.476Z,100246.17
2023-03-24T03:30:14.261Z,100247.13
2023-03-24T03:32:54.478Z,100247.56
2023-03-24T03:35:29.856Z,100251.11
2023-03-24T03:38:00.428Z,100255.88
2023-03-24T03:40:33.396Z,100253.77
2023-03-24T03:43:07.740Z,100257.45
2023-03-24T03:45:35.979Z,100258.42
2023-03-24T03:48:05.261Z,100258.02
2023-03-24T03:50:33.684Z,100260.31
2023-03-24T03:53:06.691Z,100260.34
2023-03-24T03:55:35.653Z,100263.12
2023-03-24T03:58:06.948Z,100261.03
2023-03-24T04:00:39.897Z,100267.05
2023-03-24T04:03:30.900Z,100266.25
2023-03-24T04:06:04.312Z,100269.73
2023-03-24T04:09:10.059Z,100269.75
2023-03-24T04:11:57.148Z,100270.77
2023-03-24T04:14:57.769Z,100271.94
2023-03-24T04:17:58.597Z,100270.73
2023-03-24T04:21:33.834Z,100271.64
2023-03-24T04:24:12.331Z,100274.63
2023-03-24T04:26:46.750Z,100270.52
2023-03-24T04:29:27.984Z,100269.15
2023-03-24T04:31:59.372Z,100269.05
2023-03-24T04:34:36.263Z,100267.27
2023-03-24T04:37:20.624Z,100261.52
2023-03-24T04:39:58.922Z,100252.27
2023-03-24T04:42:32.675Z,100248.14
2023-03-24T04:45:00.895Z,100246.84
2023-03-24T04:47:51.183Z,100249.89
2023-03-24T04:50:51.612Z,100249.36
2023-03-24T04:53:22.152Z,100250.80
2023-03-24T04:55:50.556Z,100250.48
2023-03-24T04:58:29.731Z,100256.89
2023-03-24T05:00:58.897Z,100259.80
2023-03-24T05:03:28.262Z,100257.93
2023-03-24T05:06:00.396Z,100258.35
2023-03-24T05:08:29.334Z,100257.80
2023-03-24T05:10:57.782Z,100255.22
2023-03-24T05:13:26.440Z,100254.09
2023-03-24T05:15:59.589Z,100253.83
2023-03-24T05:18:43.363Z,100252.96
2023-03-24T05:21:13.310Z,100252.11
2023-03-24T05:23:41.933Z,100255.25
2023-03-24T05:26:13.260Z,100254.45
2023-03-24T05:28:53.739Z,100259.97
2023-03-24T05:31:21.896Z,100268.56
2023-03-24T05:33:56.757Z,100272.67
2023-03-24T05:36:25.796Z,100281.56
2023-03-24T05:38:59.979Z,100287.28
2023-03-24T05:41:38.728Z,100297.13
2023-03-24T05:44:07.028Z,100298.67
2023-03-24T05:46:35.678Z,100308.85
2023-03-24T05:49:04.930Z,100314.61
2023-03-24T05:51:36.707Z,100316.02
2023-03-24T05:54:07.594Z,100316.11
2023-03-24T05:56:44.006Z,100316.39
2023-03-24T05:59:33.585Z,100317.14
2023-03-24T06:02:01.906Z,100319.77
2023-03-24T06:04:46.340Z,100321.41
2023-03-24T06:07:26.710Z,100316.92
2023-03-24T06:10:03.277Z,100314.50
2023-03-24T06:12:38.929Z,100315.63
2023-03-24T06:15:07.985Z,100314.90
2023-03-24T06:17:43.382Z,100311.76
2023-03-24T06:20:19.794Z,100308.99
2023-03-24T06:23:04.673Z,100307.22
2023-03-24T06:25:44.973Z,100309.91
2023-03-24T06:28:20.857Z,100306.60
2023-03-24T06:30:49.782Z,100306.02
2023-03-24T06:33:26.057Z,100310.39
2023-03-24T06:35:55.023Z,100309.10
2023-03-24T06:38:23.784Z,100309.35
2023-03-24T06:40:52.539Z,100307.05
2023-03-24T06:43:20.956Z,100306.84
2023-03-24T06:45:53.003Z,100309.09
2023-03-24T06:48:26.817Z,100311.67
2023-03-24T06:51:04.712Z,100309.73
2023-03-24T06:53:35.150Z,100309.34
2023-03-24T06:56:05.094Z,100307.23
2023-03-24T06:58:40.695Z,100304.13
2023-03-24T07:01:11.680Z,100299.98
2023-03-24T07:03:57.907Z,100296.32
2023-03-24T07:06:40.392Z,100305.58
2023-03-24T07:09:15.501Z,100302.76
2023-03-24T07:11:45.719Z,100306.48
2023-03-24T07:14:14.209Z,100309.53
2023-03-24T07:16:44.686Z,100309.00
2023-03-24T07:19:27.356Z,100316.56
2023-03-24T07:22:24.333Z,100320.06
2023-03-24T07:25:25.883Z,100317.16
2023-03-24T07:28:02.820Z,100313.14
2023-03-24T07:30:41.022Z,100311.91
2023-03-24T07:33:13.017Z,100311.54
2023-03-24T07:35:43.032Z,100309.14
2023-03-24T07:38:15.891Z,100309.69
2023-03-24T07:40:44.841Z,100307.52
2023-03-24T07:43:15.832Z,100305.21
2023-03-24T07:46:22.638Z,100304.68
2023-03-24T07:48:53.046Z,100296.49
2023-03-24T07:51:21.384Z,100294.59
2023-03-24T07:54:03.094Z,100295.70
2023-03-24T07:56:38.680Z,100296.45
2023-03-24T07:59:07.942Z,100297.45
2023-03-24T08:02:18.516Z,100302.23
2023-03-24T08:05:00.748Z,100301.38
2023-03-24T08:07:53.879Z,100299.48
2023-03-24T08:10:23.461Z,100289.30
2023-03-24T08:12:55.061Z,100287.31
2023-03-24T08:15:23.442Z,100285.48
2023-03-24T08:17:56.891Z,100282.77
2023-03-24T08:20:27.427Z,100279.05
2023-03-24T08:22:56.062Z,100279.96
2023-03-24T08:25:24.961Z,100279.80
2023-03-24T08:27:53.200Z,100279.39
2023-03-24T08:30:26.169Z,100279.91
2023-03-24T08:32:56.123Z,100283.75
2023-03-24T08:35:25.398Z,100281.29
2023-03-24T08:37:53.983Z,100286.61
2023-03-24T08:40:27.012Z,100285.31
2023-03-24T08:42:56.266Z,100284.41
2023-03-24T08:45:27.614Z,100284.10
2023-03-24T08:47:56.157Z,100288.55
2023-03-24T08:50:26.079Z,100283.76
2023-03-24T08:52:56.328Z,100279.15
2023-03-24T08:55:25.021Z,100277.14
2023-03-24T08:57:53.628Z,100275.27
2023-03-24T09:00:22.845Z,100270.27
2023-03-24T09:03:07.750Z,100268.10
2023-03-24T09:05:54.273Z,100265.05
2023-03-24T09:08:23.174Z,100265.93
2023-03-24T09:10:51.569Z,100256.91
2023-03-24T09:13:20.603Z,100254.90
2023-03-24T09:15:50.615Z,100252.98
2023-03-24T09:18:19.363Z,100249.04
2023-03-24T09:20:48.015Z,100250.33
2023-03-24T09:23:16.939Z,100243.14
2023-03-24T09:25:50.433Z,100242.84
2023-03-24T09:28:18.927Z,100238.80
2023-03-24T09:30:47.080Z,100235.85
2023-03-24T09:33:16.147Z,100233.53
2023-03-24T09:35:44.497Z,100233.20
2023-03-24T09:38:16.243Z,100235.58
2023-03-24T09:40:44.349Z,100235.77
2023-03-24T09:43:31.989Z,100236.50
2023-03-24T09:46:02.359Z,100233.34
2023-03-24T09:48:34.507Z,100233.52
2023-03-24T09:51:07.694Z,100230.84
2023-03-24T09:53:51.499Z,100233.52
2023-03-24T09:56:20.925Z,100231.92
2023-03-24T09:59:07.913Z,100232.79
2023-03-24T10:01:36.667Z,100231.86
2023-03-24T10:04:05.106Z,100231.27
2023-03-24T10:06:42.746Z,100230.82
2023-03-24T10:09:23.841Z,100229.18
2023-03-24T10:12:05.493Z,100230.27
2023-03-24T10:14:54.634Z,100230.50
2023-03-24T10:17:23.027Z,100235.09
2023-03-24T10:20:03.189Z,100237.03
2023-03-24T10:22:35.643Z,100241.02
2023-03-24T10:25:07.140Z,100239.69
2023-03-24T10:27:57.209Z,100240.45
2023-03-24T10:30:26.963Z,100232.39
2023-03-24T10:32:58.652Z,100224.90
2023-03-24T10:35:36.995Z,100218.38
2023-03-24T10:38:18.653Z,100210.54
2023-03-24T10:40:47.941Z,100208.05
2023-03-24T10:43:17.450Z,100208.94
2023-03-24T10:45:47.792Z,100206.48
2023-03-24T10:48:33.549Z,100202.52
2023-03-24T10:51:02.993Z,100195.70
2023-03-24T10:53:31.880Z,100188.48
2023-03-24T10:56:00.213Z,100187.99
2023-03-24T10:58:30.934Z,100184.46
2023-03-24T11:00:59.176Z,100184.74
2023-03-24T11:03:38.044Z,100184.34
2023-03-24T11:06:07.072Z,100181.89
2023-03-24T11:08:37.083Z,100181.52
2023-03-24T11:11:26.652Z,100181.23
2023-03-24T11:13:59.394Z,100177.77
2023-03-24T11:16:37.379Z,100176.91
2023-03-24T11:19:07.453Z,100174.76
2023-03-24T11:21:36.506Z,100172.17
2023-03-24T11:24:09.961Z,100169.48
2023-03-24T11:26:39.597Z,100167.86
2023-03-24T11:29:20.136Z,100172.65
2023-03-24T11:31:54.913Z,100173.57
2023-03-24T11:34:26.528Z,100175.26
2023-03-24T11:36:55.968Z,100174.76
2023-03-24T11:39:27.886Z,100172.22
2023-03-24T11:42:02.612Z,100174.55
2023-03-24T11:44:51.607Z,100171.14
2023-03-24T11:47:24.570Z,100165.49
2023-03-24T11:49:57.893Z,100163.39
2023-03-24T11:52:31.620Z,100159.91
2023-03-24T11:55:00.142Z,100163.09
2023-03-24T11:57:35.712Z,100161.20
2023-03-24T12:00:09.127Z,100161.40
2023-03-24T12:03:02.485Z,100159.88
2023-03-24T12:05:37.239Z,100159.98
2023-03-24T12:08:27.707Z,100151.56
2023-03-24T12:10:55.906Z,100152.71
2023-03-24T12:13:32.748Z,100148.43
2023-03-24T12:16:07.873Z,100148.33
2023-03-24T12:18:42.954Z,100145.62
2023-03-24T12:21:27.204Z,100148.46
2023-03-24T12:23:58.707Z,100141.15
2023-03-24T12:26:27.934Z,100144.17
2023-03-24T12:29:15.536Z,100143.83
2023-03-24T12:31:46.661Z,100138.09
2023-03-24T12:34:27.463Z,100139.71
2023-03-24T12:37:22.309Z,100138.05
2023-03-24T12:39:58.067Z,100137.32
2023-03-24T12:42:26.175Z,100140.92
2023-03-24T12:44:57.450Z,100143.84
2023-03-24T12:47:25.602Z,100141.67
2023-03-24T12:49:57.601Z,100139.34
2023-03-24T12:52:31.329Z,100136.98
2023-03-24T12:55:05.248Z,100131.41
2023-03-24T12:57:38.559Z,100132.67
2023-03-24T13:00:12.652Z,100131.73
2023-03-24T13:02:48.931Z,100129.39
2023-03-24T13:05:33.254Z,100129.30
2023-03-24T13:08:13.922Z,100122.98
2023-03-24T13:10:42.834Z,100118.94
2023-03-24T13:13:13.638Z,100115.76
2023-03-24T13:15:42.209Z,100111.63
2023-03-24T13:18:11.045Z,100110.33
2023-03-24T13:20:49.981Z,100111.89
2023-03-24T13:23:18.167Z,100108.44
2023-03-24T13:25:50.443Z,100106.48
2023-03-24T13:28:21.521Z,100107.35
2023-03-24T13:30:51.714Z,100105.54
2023-03-24T13:33:28.220Z,100106.36
2023-03-24T13:36:41.061Z,100104.84
2023-03-24T13:39:15.998Z,100107.06
2023-03-24T13:41:47.615Z,100102.38
2023-03-24T13:44:29.111Z,100099.09
2023-03-24T13:47:16.166Z,100099.60
2023-03-24T13:49:53.295Z,100102.11
2023-03-24T13:52:23.208Z,100104.01
2023-03-24T13:54:58.314Z,100101.48
2023-03-24T13:57:27.091Z,100097.78
2023-03-24T13:59:59.957Z,100097.73
2023-03-24T14:02:31.879Z,100099.52
2023-03-24T14:05:06.921Z,100094.42
2023-03-24T14:07:41.232Z,100096.97
2023-03-24T14:10:20.992Z,100090.11
2023-03-24T14:13:02.082Z,100092.71
2023-03-24T14:15:35.701Z,100089.10
2023-03-24T14:18:16.604Z,100090.66
2023-03-24T14:20:56.838Z,100088.49
2023-03-24T14:23:39.336Z,100081.89
2023-03-24T14:26:28.961Z,100082.61
2023-03-24T14:28:57.317Z,100079.81
2023-03-24T14:31:33.054Z,100077.60
2023-03-24T14:34:22.401Z,100074.08
2023-03-24T14:36:57.898Z,100068.64
2023-03-24T14:39:46.487Z,100070.77
2023-03-24T14:42:33.420Z,100071.48
2023-03-24T14:45:24.333Z,100072.23
2023-03-24T14:47:57.832Z,100067.57
2023-03-24T14:50:26.906Z,100066.87
2023-03-24T14:52:55.691Z,100060.90
2023-03-24T14:55:24.063Z,100061.58
2023-03-24T14:57:53.583Z,100058.41
2023-03-24T15:00:36.251Z,100059.44
2023-03-24T15:03:11.711Z,100059.77
2023-03-24T15:05:39.973Z,100061.11
2023-03-24T15:08:15.878Z,100066.48
2023-03-24T15:10:50.786Z,100063.48
2023-03-24T15:13:26.769Z,100064.48
2023-03-24T15:16:07.217Z,100060.85
2023-03-24T15:18:38.844Z,100062.22
2023-03-24T15:21:15.773Z,100063.10
2023-03-24T15:23:47.696Z,100061.52
2023-03-24T15:26:16.194Z,100059.58
2023-03-24T15:28:44.711Z,100060.91
2023-03-24T15:31:12.891Z,100063.88
2023-03-24T15:33:41.724Z,100063.88
2023-03-24T15:36:16.863Z,100061.94
2023-03-24T15:38:46.961Z,100062.44
2023-03-24T15:41:16.352Z,100061.20
2023-03-24T15:43:45.239Z,100059.58
2023-03-24T15:46:24.044Z,100059.67
2023-03-24T15:48:52.620Z,100069.77
2023-03-24T15:51:21.050Z,100068.20
2023-03-24T15:53:55.452Z,100068.88
2023-03-24T15:56:27.608Z,100064.52
2023-03-24T15:58:57.730Z,100066.58
2023-03-24T16:01:39.469Z,100061.98
2023-03-24T16:04:17.843Z,100061.36
2023-03-24T16:06:49.446Z,100061.30
2023-03-24T16:09:21.954Z,100059.26
2023-03-24T16:11:50.135Z,100056.88
2023-03-24T16:14:27.081Z,100057.59
2023-03-24T16:16:58.396Z,100057.45
2023-03-24T16:19:26.987Z,100058.43
2023-03-24T16:21:55.432Z,100057.30
2023-03-24T16:24:24.559Z,100060.94
2023-03-24T16:26:52.669Z,100059.88
2023-03-24T16:29:25.961Z,100061.80
2023-03-24T16:31:56.262Z,100061.70
2023-03-24T16:34:24.461Z,100061.83
2023-03-24T16:36:53.253Z,100062.80
2023-03-24T16:39:22.579Z,100066.23
2023-03-24T16:41:54.133Z,100069.02
2023-03-24T16:44:23.053Z,100072.48
2023-03-24T16:46:52.262Z,100072.30
2023-03-24T16:49:22.121Z,100074.19
2023-03-24T16:51:53.255Z,100076.73
2023-03-24T16:54:25.372Z,100076.83
2023-03-24T16:56:54.436Z,100082.46
2023-03-24T16:59:22.780Z,100084.44
2023-03-24T17:01:53.057Z,100083.10
2023-03-24T17:04:22.521Z,100084.31
2023-03-24T17:06:53.600Z,100083.04
2023-03-24T17:09:23.258Z,100083.91
2023-03-24T17:11:55.716Z,100084.55
2023-03-24T17:14:24.012Z,100095.28
2023-03-24T17:16:53.843Z,100095.63
2023-03-24T17:19:22.845Z,100099.46
2023-03-24T17:22:03.437Z,100102.63
2023-03-24T17:24:36.094Z,100107.27
2023-03-24T17:27:04.720Z,100109.73
2023-03-24T17:29:33.212Z,100117.85
2023-03-24T17:32:01.371Z,100115.06
2023-03-24T17:34:47.719Z,100121.09
2023-03-24T17:37:17.690Z,100117.29
2023-03-24T17:39:46.454Z,100119.16
2023-03-24T17:42:14.833Z,100130.00
2023-03-24T17:44:44.736Z,100135.06
2023-03-24T17:47:12.868Z,100132.64
2023-03-24T17:50:01.320Z,100135.23
2023-03-24T17:52:39.828Z,100144.73
2023-03-24T17:55:08.905Z,100143.97
2023-03-24T17:57:37.057Z,100147.39
2023-03-24T18:00:08.465Z,100149.05
2023-03-24T18:02:40.699Z,100148.98
2023-03-24T18:05:09.767Z,100145.62
2023-03-24T18:07:40.090Z,100145.36
2023-03-24T18:10:08.759Z,100146.81
2023-03-24T18:12:38.606Z,100144.98
2023-03-24T18:15:07.841Z,100145.73
2023-03-24T18:17:36.486Z,100149.25
2023-03-24T18:20:11.379Z,100151.59
2023-03-24T18:22:41.249Z,100155.83
2023-03-24T18:25:10.231Z,100156.77
2023-03-24T18:27:45.856Z,100161.14
2023-03-24T18:30:14.470Z,100155.64
2023-03-24T18:32:43.301Z,100158.98
2023-03-24T18:35:16.536Z,100155.79
2023-03-24T18:37:45.690Z,100159.50
2023-03-24T18:40:16.135Z,100156.82
2023-03-24T18:42:45.450Z,100161.05
2023-03-24T18:45:17.672Z,100162.71
2023-03-24T18:47:46.501Z,100165.41
2023-03-24T18:50:14.759Z,100164.65
2023-03-24T18:52:42.972Z,100166.98
2023-03-24T18:55:11.569Z,100165.35
2023-03-24T18:57:40.473Z,100165.11
2023-03-24T19:00:11.073Z,100165.02
2023-03-24T19:02:39.981Z,100162.19
2023-03-24T19:05:09.937Z,100163.86
2023-03-24T19:07:38.702Z,100164.55
2023-03-24T19:10:07.187Z,100164.33
2023-03-24T19:12:35.672Z,100160.13
2023-03-24T19:15:07.276Z,100164.90
2023-03-24T19:17:36.469Z,100167.76
2023-03-24T19:20:09.385Z,100162.30
2023-03-24T19:22:40.498Z,100162.02
2023-03-24T19:25:09.661Z,100162.44
2023-03-24T19:27:45.853Z,100157.30
2023-03-24T19:30:14.639Z,100159.95
2023-03-24T19:32:43.380Z,100162.98
2023-03-24T19:35:12.238Z,100164.45
2023-03-24T19:37:41.477Z,100167.32
2023-03-24T19:40:11.947Z,100167.38
2023-03-24T19:42:42.104Z,100174.50
2023-03-24T19:45:14.451Z,100169.69
2023-03-24T19:47:46.114Z,100165.77
2023-03-24T19:50:15.211Z,100159.91
2023-03-24T19:52:48.451Z,100154.25
2023-03-24T19:55:16.935Z,100151.34
2023-03-24T19:57:45.719Z,100156.40
2023-03-24T20:00:14.648Z,100165.42
2023-03-24T20:02:43.190Z,100163.39
2023-03-24T20:05:11.601Z,100163.98
2023-03-24T20:07:39.851Z,100161.40
2023-03-24T20:10:08.272Z,100158.70
2023-03-24T20:12:38.395Z,100152.88
2023-03-24T20:15:06.922Z,100152.77
2023-03-24T20:17:37.712Z,100156.08
2023-03-24T20:20:07.593Z,100153.54
2023-03-24T20:22:36.456Z,100155.48
2023-03-24T20:25:05.105Z,100153.80
2023-03-24T20:27:34.003Z,100153.32
2023-03-24T20:30:03.503Z,100152.31
2023-03-24T20:32:37.201Z,100153.88
2023-03-24T20:35:05.678Z,100165.81
2023-03-24T20:37:35.912Z,100169.11
2023-03-24T20:40:09.704Z,100160.52
2023-03-24T20:42:39.078Z,100159.50
2023-03-24T20:45:07.480Z,100161.91
2023-03-24T20:47:39.873Z,100166.93
2023-03-24T20:50:08.657Z,100165.73
2023-03-24T20:52:39.534Z,100173.33
2023-03-24T20:55:28.144Z,100174.38
2023-03-24T20:58:02.559Z,100176.47
2023-03-24T21:00:30.791Z,100173.36
2023-03-24T21:02:59.113Z,100175.08
2023-03-24T21:05:28.348Z,100173.87
2023-03-24T21:07:56.867Z,100173.03
2023-03-24T21:10:25.008Z,100174.07
2023-03-24T21:12:56.561Z,100169.09
2023-03-24T21:15:27.691Z,100177.73
2023-03-24T21:18:01.584Z,100177.08
2023-03-24T21:20:30.982Z,100172.27
2023-03-24T21:23:03.648Z,100168.67
2023-03-24T21:25:37.718Z,100175.42
2023-03-24T21:28:06.028Z,100172.66
2023-03-24T21:30:34.263Z,100175.95
2023-03-24T21:33:02.823Z,100170.09
2023-03-24T21:35:31.512Z,100167.52
2023-03-24T21:38:01.413Z,100162.88
2023-03-24T21:40:30.227Z,100160.81
2023-03-24T21:43:05.346Z,100157.91
2023-03-24T21:45:33.631Z,100151.05
2023-03-24T21:48:05.609Z,100152.27
2023-03-24T21:50:39.090Z,100154.20
2023-03-24T21:53:15.359Z,100158.17
2023-03-24T21:55:54.649Z,100154.23
2023-03-24T21:58:22.993Z,100149.09
2023-03-24T22:00:52.249Z,100143.75
2023-03-24T22:03:21.956Z,100144.96
2023-03-24T22:05:50.317Z,100143.09
2023-03-24T22:08:22.854Z,100138.12
2023-03-24T22:10:54.427Z,100138.13
2023-03-24T22:13:29.345Z,100140.20
2023-03-24T22:16:02.162Z,100139.88
2023-03-24T22:18:31.292Z,100144.71
2023-03-24T22:21:03.852Z,100147.13
2023-03-24T22:23:38.111Z,100150.73
2023-03-24T22:26:07.430Z,100150.56
2023-03-24T22:28:40.544Z,100151.58
2023-03-24T22:31:09.717Z,100153.64
2023-03-24T22:33:38.029Z,100147.61
2023-03-24T22:36:08.018Z,100143.82
2023-03-24T22:38:36.427Z,100142.96
2023-03-24T22:41:11.823Z,100141.94
2023-03-24T22:43:41.836Z,100139.36
2023-03-24T22:46:10.279Z,100137.66
2023-03-24T22:48:40.477Z,100135.96
2023-03-24T22:51:09.296Z,100137.04
2023-03-24T22:53:38.937Z,100135.34
2023-03-24T22:56:09.224Z,100136.91
2023-03-24T22:58:37.732Z,100137.77
2023-03-24T23:01:07.098Z,100131.59
2023-03-24T23:03:35.495Z,100132.29
2023-03-24T23:06:04.072Z,100133.15
2023-03-24T23:08:33.490Z,100125.05
2023-03-24T23:11:01.698Z,100120.41
2023-03-24T23:13:36.666Z,100120.41
2023-03-24T23:16:12.753Z,100121.95
2023-03-24T23:18:41.792Z,100119.89
2023-03-24T23:21:11.709Z,100117.48
2023-03-24T23:23:40.170Z,100115.59
2023-03-24T23:26:26.520Z,100113.70
2023-03-24T23:28:56.444Z,100109.73
2023-03-24T23:31:25.988Z,100104.58
2023-03-24T23:33:55.210Z,100102.36
2023-03-24T23:36:26.448Z,100104.77
2023-03-24T23:38:54.862Z,100108.23
2023-03-24T23:41:24.641Z,100111.16
2023-03-24T23:43:53.059Z,100108.25
2023-03-24T23:46:22.221Z,100110.67
2023-03-24T23:48:51.078Z,100113.09
2023-03-24T23:51:24.704Z,100116.73
2023-03-24T23:53:52.943Z,100108.65
2023-03-24T23:56:21.846Z,100111.07
2023-03-24T23:58:50.352Z,100111.25
